Time;durP1;ratioP1;P1;durP2;ratioP2;P2;SDS_P1;SDS_P2;PMS_P1;PMS_P2;Temp;Humidity;BMP_temperature;BMP_pressure;BME280_temperature;BME280_humidity;BME280_pressure;Samples;Min_cycle;Max_cycle;Signal;HPM_P1;HPM_P2
2022/04/08 00:02:00;;;;;;;2.67;1.30;;;10.00;54.50;;;;;;4984130;28;20467;-44
2022/04/08 00:04:27;;;;;;;7.80;1.63;;;10.00;54.80;;;;;;4985647;28;20473;-44
2022/04/08 00:06:54;;;;;;;3.80;1.30;;;10.00;54.60;;;;;;4983597;28;21055;-45
2022/04/08 00:09:21;;;;;;;6.20;1.57;;;10.00;54.70;;;;;;4969969;28;20551;-44
2022/04/08 00:11:48;;;;;;;3.23;1.10;;;10.00;55.10;;;;;;4984399;28;20478;-45
2022/04/08 00:14:15;;;;;;;3.80;3.00;;;9.90;54.70;;;;;;4984100;28;20562;-44
2022/04/08 00:16:42;;;;;;;7.83;1.20;;;9.90;54.90;;;;;;4984336;28;20504;-44
2022/04/08 00:19:08;;;;;;;4.37;1.70;;;9.90;55.40;;;;;;4985671;28;20489;-44
2022/04/08 00:21:35;;;;;;;3.07;1.03;;;9.80;55.50;;;;;;4984593;28;20466;-45
2022/04/08 00:24:02;;;;;;;4.77;1.60;;;9.80;55.80;;;;;;4978522;28;20453;-44
2022/04/08 00:26:29;;;;;;;2.80;1.27;;;9.80;56.20;;;;;;4970476;28;20467;-44
2022/04/08 00:28:56;;;;;;;6.20;1.40;;;9.80;56.30;;;;;;4981194;28;20480;-44
2022/04/08 00:31:23;;;;;;;4.00;1.50;;;9.80;56.50;;;;;;4981010;28;20484;-44
2022/04/08 00:33:50;;;;;;;3.43;1.20;;;9.80;56.60;;;;;;4981751;28;20509;-44
2022/04/08 00:36:17;;;;;;;3.53;1.70;;;9.80;56.30;;;;;;4982984;28;20840;-44
2022/04/08 00:38:43;;;;;;;3.20;1.40;;;9.80;56.40;;;;;;4976522;28;20464;-43
2022/04/08 00:41:10;;;;;;;6.40;1.40;;;9.80;56.70;;;;;;4982841;28;20557;-44
2022/04/08 00:43:40;;;;;;;6.07;1.23;;;9.70;56.80;;;;;;4982351;28;20462;-45
2022/04/08 00:46:09;;;;;;;2.57;1.30;;;9.70;57.20;;;;;;4985148;28;20470;-44
2022/04/08 00:48:37;;;;;;;7.30;1.37;;;9.70;57.40;;;;;;4986008;28;21017;-43
2022/04/08 00:51:05;;;;;;;5.87;1.10;;;9.70;57.50;;;;;;4983571;28;20565;-44
2022/04/08 00:53:35;;;;;;;3.47;1.50;;;9.70;58.10;;;;;;4981364;28;20467;-45
2022/04/08 00:56:03;;;;;;;5.40;2.30;;;9.70;57.80;;;;;;4984743;28;20459;-45
2022/04/08 00:58:31;;;;;;;6.23;1.57;;;9.70;57.70;;;;;;4981190;28;20462;-45
2022/04/08 01:00:58;;;;;;;4.90;2.00;;;9.70;58.00;;;;;;4979682;28;20539;-44
2022/04/08 01:03:25;;;;;;;6.20;1.40;;;9.70;58.10;;;;;;4986043;28;20459;-44
2022/04/08 01:05:52;;;;;;;3.10;1.57;;;9.70;58.50;;;;;;4978309;28;20831;-44
2022/04/08 01:08:19;;;;;;;4.53;1.70;;;9.70;58.30;;;;;;4967001;28;20684;-44
2022/04/08 01:10:47;;;;;;;5.07;1.40;;;9.70;58.40;;;;;;4982264;28;20494;-44
2022/04/08 01:13:13;;;;;;;9.10;1.80;;;9.70;58.40;;;;;;4981696;28;20825;-44
2022/04/08 01:15:41;;;;;;;4.60;1.77;;;9.70;58.90;;;;;;4976439;28;20525;-44
2022/04/08 01:18:08;;;;;;;3.77;1.40;;;9.70;58.90;;;;;;4985113;28;20465;-44
2022/04/08 01:20:35;;;;;;;4.53;1.33;;;9.70;58.90;;;;;;4982463;28;20924;-44
2022/04/08 01:23:02;;;;;;;4.97;2.10;;;9.70;58.90;;;;;;4984564;28;20845;-44
2022/04/08 01:25:29;;;;;;;3.33;1.50;;;9.60;59.10;;;;;;4983126;28;20461;-44
2022/04/08 01:27:56;;;;;;;5.63;1.73;;;9.60;59.10;;;;;;4981964;28;20463;-44
2022/04/08 01:30:23;;;;;;;7.43;2.50;;;9.60;59.40;;;;;;4983711;28;20471;-44
2022/04/08 01:32:49;;;;;;;5.23;1.80;;;9.60;59.60;;;;;;4980768;28;20526;-44
2022/04/08 01:35:16;;;;;;;6.40;1.60;;;9.60;59.50;;;;;;4984639;28;20464;-45
2022/04/08 01:37:44;;;;;;;5.70;1.23;;;9.60;59.60;;;;;;4984068;28;20831;-44
2022/04/08 01:40:11;;;;;;;4.60;2.00;;;9.60;59.30;;;;;;4979019;28;20954;-44
2022/04/08 01:42:38;;;;;;;4.63;1.30;;;9.60;59.40;;;;;;4979051;28;20464;-43
2022/04/08 01:45:05;;;;;;;10.57;1.47;;;9.60;59.30;;;;;;4979616;28;20752;-43
2022/04/08 01:47:32;;;;;;;5.20;1.20;;;9.60;59.90;;;;;;4964508;28;20451;-43
2022/04/08 01:49:58;;;;;;;4.20;1.80;;;9.50;60.10;;;;;;4963488;28;20820;-44
2022/04/08 01:52:25;;;;;;;2.50;1.40;;;9.50;60.10;;;;;;4981876;28;20454;-44
2022/04/08 01:54:52;;;;;;;3.17;1.40;;;9.50;60.10;;;;;;4986805;28;20961;-43
2022/04/08 01:57:22;;;;;;;7.03;1.10;;;9.50;60.20;;;;;;4965158;28;20458;-44
2022/04/08 01:59:50;;;;;;;3.37;1.63;;;9.50;60.40;;;;;;4980430;28;20537;-44
2022/04/08 02:02:17;;;;;;;4.57;2.63;;;9.50;60.30;;;;;;4980883;28;20963;-44
2022/04/08 02:04:44;;;;;;;3.00;1.30;;;9.50;60.50;;;;;;4981868;28;20955;-44
2022/04/08 02:07:11;;;;;;;4.27;1.80;;;9.50;60.80;;;;;;4982949;28;20549;-44
2022/04/08 02:09:39;;;;;;;3.13;1.20;;;9.50;60.90;;;;;;4982032;28;21147;-44
2022/04/08 02:12:05;;;;;;;3.93;1.70;;;9.40;61.00;;;;;;4979252;28;20462;-44
2022/04/08 02:14:32;;;;;;;6.93;1.57;;;9.40;61.20;;;;;;4978016;28;20456;-44
2022/04/08 02:16:59;;;;;;;6.70;1.63;;;9.40;61.20;;;;;;4978939;28;20477;-44
2022/04/08 02:19:26;;;;;;;6.93;1.60;;;9.40;61.40;;;;;;4981221;28;20482;-44
2022/04/08 02:21:52;;;;;;;6.90;1.30;;;9.30;61.30;;;;;;4977490;28;21152;-44
2022/04/08 02:24:19;;;;;;;10.73;2.50;;;9.30;61.50;;;;;;4964085;28;20830;-44
2022/04/08 02:26:46;;;;;;;9.70;2.20;;;9.30;62.00;;;;;;4982831;28;20459;-44
2022/04/08 02:29:13;;;;;;;5.13;3.23;;;9.30;62.00;;;;;;4980853;28;20470;-44
2022/04/08 02:31:39;;;;;;;7.70;1.70;;;9.30;61.70;;;;;;4981877;28;20474;-44
2022/04/08 02:34:06;;;;;;;5.60;1.60;;;9.40;61.90;;;;;;4980035;28;20462;-44
2022/04/08 02:36:33;;;;;;;8.97;1.90;;;9.30;62.90;;;;;;4984583;28;20454;-45
2022/04/08 02:39:01;;;;;;;5.03;1.87;;;9.40;63.70;;;;;;4983119;28;20801;-45
2022/04/08 02:41:28;;;;;;;5.40;2.57;;;9.40;63.40;;;;;;4971806;28;20501;-46
2022/04/08 02:43:55;;;;;;;9.23;1.70;;;9.40;63.30;;;;;;4986786;28;20851;-46
2022/04/08 02:46:22;;;;;;;11.93;1.90;;;9.40;63.40;;;;;;4987328;28;20476;-46
2022/04/08 02:48:49;;;;;;;5.47;1.23;;;9.40;63.40;;;;;;4993512;28;20485;-46
2022/04/08 02:51:16;;;;;;;5.40;1.30;;;9.40;63.50;;;;;;4989220;28;20461;-46
2022/04/08 02:53:42;;;;;;;2.87;1.60;;;9.40;63.90;;;;;;4970202;28;20498;-46
2022/04/08 02:56:09;;;;;;;5.00;1.00;;;9.40;64.00;;;;;;4989010;28;20473;-45
2022/04/08 02:58:37;;;;;;;5.03;1.20;;;9.50;64.40;;;;;;4989883;28;20804;-46
2022/04/08 03:01:04;;;;;;;5.80;1.70;;;9.50;64.40;;;;;;4975141;28;20494;-46
2022/04/08 03:03:31;;;;;;;2.33;1.27;;;9.50;64.80;;;;;;4996351;28;21023;-46
2022/04/08 03:05:58;;;;;;;4.03;1.20;;;9.50;64.80;;;;;;4977058;28;20442;-46
2022/04/08 03:08:25;;;;;;;3.03;1.23;;;9.50;65.10;;;;;;4992730;28;20481;-45
2022/04/08 03:10:52;;;;;;;3.30;1.27;;;9.60;65.60;;;;;;4996162;28;20450;-46
2022/04/08 03:13:19;;;;;;;6.30;1.20;;;9.60;65.70;;;;;;4991872;28;20454;-46
2022/04/08 03:15:46;;;;;;;4.57;0.97;;;9.50;65.90;;;;;;4980131;28;20544;-46
2022/04/08 03:18:13;;;;;;;3.07;1.00;;;9.50;66.30;;;;;;4974254;28;20489;-46
2022/04/08 03:20:39;;;;;;;4.77;1.57;;;9.50;66.70;;;;;;4988959;28;20493;-46
2022/04/08 03:23:06;;;;;;;2.63;1.33;;;9.40;66.70;;;;;;4987830;28;20465;-46
2022/04/08 03:25:33;;;;;;;3.73;1.37;;;9.40;66.80;;;;;;4989778;28;20476;-46
2022/04/08 03:28:00;;;;;;;3.03;1.17;;;9.40;66.90;;;;;;4995032;28;20453;-46
2022/04/08 03:30:27;;;;;;;2.87;1.07;;;9.40;67.00;;;;;;4989191;28;20484;-46
2022/04/08 03:32:55;;;;;;;2.33;1.50;;;9.30;67.10;;;;;;4990837;28;20476;-46
2022/04/08 03:35:21;;;;;;;1.47;1.17;;;9.30;67.00;;;;;;4988024;28;20482;-46
2022/04/08 03:37:48;;;;;;;1.40;1.10;;;9.30;67.10;;;;;;4990946;28;20552;-46
2022/04/08 03:40:16;;;;;;;1.90;1.43;;;9.20;67.30;;;;;;4987782;28;20489;-46
2022/04/08 03:42:43;;;;;;;2.50;0.93;;;9.20;67.60;;;;;;4990842;28;20499;-46
2022/04/08 03:45:10;;;;;;;1.70;0.90;;;9.20;67.50;;;;;;4993129;28;20461;-46
2022/04/08 03:47:37;;;;;;;2.60;0.67;;;9.20;67.50;;;;;;4973946;28;20839;-46
2022/04/08 03:50:04;;;;;;;3.60;1.37;;;9.10;67.70;;;;;;4990022;28;20466;-46
2022/04/08 03:52:32;;;;;;;1.47;0.60;;;9.10;68.00;;;;;;4990169;28;20505;-46
2022/04/08 03:54:59;;;;;;;4.37;0.90;;;9.10;68.10;;;;;;4992900;28;20467;-46
2022/04/08 03:57:27;;;;;;;2.23;1.07;;;9.10;68.20;;;;;;4989047;28;21022;-46
2022/04/08 03:59:55;;;;;;;1.20;0.73;;;9.10;68.20;;;;;;4991464;28;20490;-46
2022/04/08 04:02:22;;;;;;;2.20;0.97;;;9.10;68.30;;;;;;4988853;28;20459;-46
2022/04/08 04:04:49;;;;;;;3.47;1.23;;;9.10;68.00;;;;;;4976800;28;20478;-46
2022/04/08 04:07:17;;;;;;;1.33;0.53;;;9.10;68.00;;;;;;4989497;28;20466;-46
2022/04/08 04:09:46;;;;;;;1.53;0.80;;;9.10;68.20;;;;;;4964057;28;20472;-46
2022/04/08 04:12:13;;;;;;;2.77;1.20;;;9.10;68.50;;;;;;4989150;28;20474;-46
2022/04/08 04:14:40;;;;;;;1.37;0.80;;;9.10;68.50;;;;;;4992846;28;20458;-46
2022/04/08 04:17:06;;;;;;;1.50;1.00;;;9.10;68.60;;;;;;4996964;28;20541;-46
2022/04/08 04:19:33;;;;;;;1.53;0.97;;;9.10;68.10;;;;;;4992505;28;20522;-46
2022/04/08 04:22:00;;;;;;;1.63;1.10;;;9.10;68.20;;;;;;4992125;28;20490;-46
2022/04/08 04:24:26;;;;;;;1.23;0.83;;;9.10;68.50;;;;;;4974643;28;20530;-46
2022/04/08 04:26:53;;;;;;;1.40;0.83;;;9.10;68.30;;;;;;4993547;28;21031;-46
2022/04/08 04:29:20;;;;;;;2.03;0.73;;;9.00;68.70;;;;;;4991785;28;20462;-46
2022/04/08 04:31:47;;;;;;;2.90;1.10;;;9.00;68.80;;;;;;4991182;28;20517;-46
2022/04/08 04:34:14;;;;;;;1.87;1.10;;;9.00;68.90;;;;;;4976584;28;20467;-46
2022/04/08 04:36:41;;;;;;;1.67;0.80;;;9.00;69.10;;;;;;4994518;28;20455;-46
2022/04/08 04:39:08;;;;;;;4.70;1.73;;;8.90;69.10;;;;;;4981632;28;20466;-46
2022/04/08 04:41:35;;;;;;;3.53;0.70;;;8.90;69.40;;;;;;4991812;28;20493;-46
2022/04/08 04:44:02;;;;;;;4.00;1.23;;;8.90;69.50;;;;;;4990672;28;20535;-46
2022/04/08 04:46:28;;;;;;;3.57;0.97;;;8.80;69.60;;;;;;4990648;28;20455;-46
2022/04/08 04:48:55;;;;;;;1.77;0.80;;;8.80;69.90;;;;;;4988818;28;20457;-46
2022/04/08 04:51:22;;;;;;;3.17;1.27;;;8.70;69.90;;;;;;4988527;28;20463;-46
2022/04/08 04:53:49;;;;;;;1.17;0.97;;;8.70;70.30;;;;;;4993539;28;20525;-46
2022/04/08 04:56:15;;;;;;;3.17;0.87;;;8.70;70.50;;;;;;4995339;28;20461;-46
2022/04/08 04:58:42;;;;;;;1.80;0.90;;;8.70;70.50;;;;;;4989675;28;20461;-47
2022/04/08 05:01:09;;;;;;;2.10;1.10;;;8.70;70.80;;;;;;4993430;28;21053;-46
2022/04/08 05:03:39;;;;;;;1.17;0.80;;;8.70;70.80;;;;;;4989143;28;20462;-46
2022/04/08 05:06:06;;;;;;;2.77;1.27;;;8.60;70.80;;;;;;4994403;28;20532;-46
2022/04/08 05:08:32;;;;;;;2.40;1.37;;;8.60;71.00;;;;;;4991098;28;20939;-46
2022/04/08 05:11:00;;;;;;;3.40;1.90;;;8.60;71.20;;;;;;4992243;28;20496;-46
2022/04/08 05:13:26;;;;;;;3.90;1.40;;;8.60;71.30;;;;;;4994415;28;20463;-46
2022/04/08 05:15:56;;;;;;;1.90;0.93;;;8.70;71.30;;;;;;4988851;28;20842;-46
2022/04/08 05:18:23;;;;;;;3.50;1.30;;;8.70;71.10;;;;;;4990075;28;20528;-46
2022/04/08 05:20:52;;;;;;;1.23;1.10;;;8.60;71.10;;;;;;4991183;28;20489;-46
2022/04/08 05:23:19;;;;;;;3.20;1.13;;;8.70;71.20;;;;;;4991613;28;20492;-46
2022/04/08 05:25:46;;;;;;;5.60;1.17;;;8.60;71.10;;;;;;4993009;28;20489;-46
2022/04/08 05:28:15;;;;;;;5.20;1.27;;;8.70;71.30;;;;;;4991475;28;20475;-46
2022/04/08 05:30:42;;;;;;;4.50;1.20;;;8.80;70.80;;;;;;4979937;28;20554;-45
2022/04/08 05:33:15;;;;;;;3.63;1.00;;;8.80;70.70;;;;;;4987906;28;20460;-45
2022/04/08 05:35:41;;;;;;;4.50;1.63;;;8.80;70.80;;;;;;4993454;28;20521;-46
2022/04/08 05:38:08;;;;;;;3.03;1.30;;;8.80;71.20;;;;;;4991381;28;21070;-46
2022/04/08 05:40:35;;;;;;;4.60;1.60;;;8.70;71.00;;;;;;4992622;28;20487;-46
2022/04/08 05:43:02;;;;;;;2.83;1.00;;;8.70;71.10;;;;;;4987811;28;20458;-46
2022/04/08 05:45:29;;;;;;;2.60;1.47;;;8.80;71.00;;;;;;4970295;28;20533;-45
2022/04/08 05:47:56;;;;;;;3.77;1.37;;;8.80;70.80;;;;;;4990968;28;20516;-46
2022/04/08 05:50:22;;;;;;;5.43;1.67;;;8.80;70.70;;;;;;4989149;28;20529;-46
2022/04/08 05:52:51;;;;;;;4.70;1.63;;;8.80;71.10;;;;;;4988827;28;20499;-46
2022/04/08 05:55:18;;;;;;;3.90;1.73;;;8.90;70.40;;;;;;4988957;28;20451;-46
2022/04/08 05:57:46;;;;;;;6.53;3.07;;;8.90;70.20;;;;;;4989578;28;20534;-46
2022/04/08 06:00:15;;;;;;;3.77;2.23;;;8.90;69.90;;;;;;4987894;28;20478;-46
2022/04/08 06:02:47;;;;;;;3.03;2.03;;;9.00;69.70;;;;;;4987678;28;20473;-46
2022/04/08 06:05:21;;;;;;;6.50;1.80;;;9.00;69.50;;;;;;4988653;28;20457;-46
2022/04/08 06:07:50;;;;;;;4.27;2.77;;;9.00;69.60;;;;;;4990497;28;20491;-46
2022/04/08 06:10:18;;;;;;;5.10;1.17;;;9.10;70.10;;;;;;4989218;28;20541;-46
2022/04/08 06:12:47;;;;;;;4.07;1.80;;;9.10;69.60;;;;;;4987654;28;20454;-46
2022/04/08 06:15:14;;;;;;;3.40;1.70;;;9.20;69.20;;;;;;4989536;28;20470;-46
2022/04/08 06:17:44;;;;;;;3.33;1.53;;;9.20;69.00;;;;;;4991537;28;20492;-46
2022/04/08 06:20:13;;;;;;;4.23;1.93;;;9.20;69.00;;;;;;4987601;28;20466;-46
2022/04/08 06:22:40;;;;;;;4.57;2.10;;;9.30;69.10;;;;;;4989295;28;20839;-46
2022/04/08 06:25:11;;;;;;;11.50;3.53;;;9.40;68.60;;;;;;4973023;28;20547;-46
2022/04/08 06:27:38;;;;;;;7.20;2.80;;;9.40;68.50;;;;;;4988396;28;20538;-46
2022/04/08 06:30:10;;;;;;;7.43;2.10;;;9.50;68.20;;;;;;4971603;28;20446;-46
2022/04/08 06:32:41;;;;;;;5.53;2.30;;;9.50;68.60;;;;;;4987054;28;20527;-46
2022/04/08 06:35:08;;;;;;;5.97;1.70;;;9.50;68.60;;;;;;4990067;28;20468;-46
2022/04/08 06:37:35;;;;;;;5.23;2.60;;;9.50;68.60;;;;;;4991224;28;20809;-46
2022/04/08 06:40:11;;;;;;;5.03;2.50;;;9.50;68.40;;;;;;4988007;28;20482;-46
2022/04/08 06:42:40;;;;;;;7.40;3.07;;;9.60;67.50;;;;;;4989416;28;20500;-46
2022/04/08 06:45:08;;;;;;;6.13;2.20;;;9.60;67.00;;;;;;4992571;28;20453;-46
2022/04/08 06:47:48;;;;;;;9.50;3.13;;;9.60;67.40;;;;;;4992947;28;20463;-46
2022/04/08 06:50:16;;;;;;;6.60;2.97;;;9.50;67.40;;;;;;4993729;28;20449;-46
2022/04/08 06:52:43;;;;;;;5.47;3.00;;;9.60;67.60;;;;;;4990870;28;20902;-46
2022/04/08 06:55:10;;;;;;;9.77;2.90;;;9.60;67.90;;;;;;4990006;28;21499;-46
2022/04/08 06:57:37;;;;;;;9.47;3.40;;;9.60;67.40;;;;;;4993180;28;20466;-46
2022/04/08 07:00:06;;;;;;;5.10;2.67;;;9.60;67.70;;;;;;4994551;28;20450;-46
2022/04/08 07:02:34;;;;;;;9.60;2.50;;;9.60;67.70;;;;;;4990273;28;20605;-46
2022/04/08 07:05:01;;;;;;;7.07;2.73;;;9.70;67.40;;;;;;4993249;28;20532;-46
2022/04/08 07:07:32;;;;;;;7.50;2.60;;;9.70;67.50;;;;;;4976821;28;20471;-48
2022/04/08 07:09:59;;;;;;;2.93;2.00;;;9.70;67.90;;;;;;4992889;28;20447;-45
2022/04/08 07:12:27;;;;;;;5.30;1.93;;;9.70;67.30;;;;;;4989956;28;20489;-44
2022/04/08 07:14:54;;;;;;;8.53;2.67;;;9.70;67.60;;;;;;4993586;28;20451;-45
2022/04/08 07:17:29;;;;;;;6.90;2.00;;;9.70;68.00;;;;;;4987412;28;20466;-46
2022/04/08 07:20:14;;;;;;;7.17;2.70;;;9.70;68.20;;;;;;4991775;28;20490;-45
2022/04/08 07:22:42;;;;;;;9.70;3.40;;;9.70;68.10;;;;;;4991035;28;20493;-45
2022/04/08 07:25:10;;;;;;;6.93;3.17;;;9.70;68.10;;;;;;4991371;28;20454;-45
2022/04/08 07:27:47;;;;;;;5.97;1.70;;;9.80;68.10;;;;;;4992418;28;20561;-42
2022/04/08 07:30:15;;;;;;;10.10;2.80;;;9.80;67.60;;;;;;4982648;28;20442;-42
2022/04/08 07:32:43;;;;;;;5.13;2.57;;;9.80;67.80;;;;;;4983208;28;20561;-41
2022/04/08 07:35:10;;;;;;;5.40;2.80;;;9.80;68.20;;;;;;4984568;28;20466;-41
2022/04/08 07:37:37;;;;;;;6.27;2.43;;;9.80;68.20;;;;;;4964330;28;20447;-41
2022/04/08 07:40:09;;;;;;;9.43;2.30;;;9.90;68.20;;;;;;4985987;28;20482;-41
2022/04/08 07:42:36;;;;;;;6.47;2.20;;;9.90;68.30;;;;;;4980128;28;20935;-41
2022/04/08 07:45:04;;;;;;;6.47;1.93;;;10.00;67.70;;;;;;4963951;28;20448;-41
2022/04/08 07:47:31;;;;;;;5.10;2.90;;;10.00;68.10;;;;;;4985383;28;20447;-41
2022/04/08 07:49:59;;;;;;;8.03;2.47;;;10.00;67.60;;;;;;4985559;28;20447;-41
2022/04/08 07:52:27;;;;;;;5.00;2.67;;;10.00;67.60;;;;;;4972901;28;20544;-41
2022/04/08 07:54:55;;;;;;;7.93;2.73;;;10.00;67.70;;;;;;4983252;28;20558;-41
2022/04/08 07:57:22;;;;;;;8.37;2.10;;;10.00;67.30;;;;;;4981281;28;20453;-41
2022/04/08 07:59:49;;;;;;;10.57;4.53;;;10.00;67.80;;;;;;4963798;28;20455;-41
2022/04/08 08:02:16;;;;;;;6.90;2.17;;;10.00;68.40;;;;;;4980663;28;20589;-41
2022/04/08 08:04:47;;;;;;;3.53;1.70;;;10.00;67.30;;;;;;4969512;28;20556;-41
2022/04/08 08:07:14;;;;;;;6.40;1.93;;;10.00;66.70;;;;;;4980268;28;20544;-41
2022/04/08 08:09:41;;;;;;;14.57;2.47;;;10.00;66.20;;;;;;4979037;28;20473;-41
2022/04/08 08:12:21;;;;;;;10.17;5.90;;;10.00;67.00;;;;;;4981306;28;20553;-41
2022/04/08 08:14:48;;;;;;;12.43;4.90;;;10.00;66.90;;;;;;4984932;28;20654;-41
2022/04/08 08:17:15;;;;;;;6.70;2.27;;;10.00;67.00;;;;;;4981767;28;20457;-41
2022/04/08 08:19:42;;;;;;;4.63;2.73;;;10.00;67.10;;;;;;4984513;28;20503;-41
2022/04/08 08:22:08;;;;;;;8.53;2.87;;;10.10;66.70;;;;;;4981003;28;20490;-41
2022/04/08 08:24:35;;;;;;;4.20;2.97;;;10.10;66.80;;;;;;4982876;28;20819;-42
2022/04/08 08:27:02;;;;;;;4.57;2.00;;;10.20;66.00;;;;;;4969225;28;20455;-42
2022/04/08 08:29:29;;;;;;;7.80;2.20;;;10.20;65.80;;;;;;4986327;28;20838;-41
2022/04/08 08:31:55;;;;;;;4.37;2.10;;;10.20;65.30;;;;;;4975923;28;21098;-42
2022/04/08 08:34:23;;;;;;;6.97;2.80;;;10.10;65.50;;;;;;4985435;28;21029;-41
2022/04/08 08:36:51;;;;;;;4.80;2.67;;;10.20;66.20;;;;;;4980258;28;20550;-42
2022/04/08 08:39:19;;;;;;;3.03;2.20;;;10.20;66.50;;;;;;4983299;28;20991;-42
2022/04/08 08:41:47;;;;;;;3.87;2.13;;;10.20;65.40;;;;;;4983186;28;21020;-41
2022/04/08 08:44:16;;;;;;;9.50;2.60;;;10.20;65.70;;;;;;4982097;28;20461;-41
2022/04/08 08:46:43;;;;;;;3.80;2.50;;;10.20;66.60;;;;;;4981970;28;20493;-42
2022/04/08 08:49:14;;;;;;;9.60;2.73;;;10.20;66.90;;;;;;4981368;28;20493;-41
2022/04/08 08:51:44;;;;;;;4.40;3.07;;;10.10;68.20;;;;;;4983113;28;21311;-41
2022/04/08 08:54:11;;;;;;;11.33;2.47;;;10.20;69.70;;;;;;4981513;28;20527;-43
2022/04/08 08:56:38;;;;;;;4.30;2.73;;;10.20;69.00;;;;;;4979235;28;20971;-41
2022/04/08 08:59:04;;;;;;;5.27;2.10;;;10.20;69.30;;;;;;4981438;28;20473;-42
2022/04/08 09:01:31;;;;;;;5.63;2.43;;;10.20;68.00;;;;;;4977562;28;20495;-40
2022/04/08 09:03:58;;;;;;;8.37;2.80;;;10.20;69.20;;;;;;4980094;28;20618;-41
2022/04/08 09:06:25;;;;;;;5.47;1.90;;;10.20;69.70;;;;;;4977550;28;20671;-41
2022/04/08 09:08:59;;;;;;;4.50;2.60;;;10.20;69.30;;;;;;4979442;28;20480;-41
2022/04/08 09:11:27;;;;;;;3.60;2.00;;;10.20;69.70;;;;;;4982428;28;20456;-41
2022/04/08 09:14:01;;;;;;;10.60;1.87;;;10.20;69.80;;;;;;4978101;28;20819;-41
2022/04/08 09:16:29;;;;;;;6.17;2.40;;;10.20;68.40;;;;;;4964754;28;20819;-41
2022/04/08 09:18:56;;;;;;;4.50;2.10;;;10.20;67.10;;;;;;4983582;28;20526;-41
2022/04/08 09:21:24;;;;;;;3.97;1.77;;;10.20;66.90;;;;;;4962989;28;20533;-41
2022/04/08 09:23:52;;;;;;;3.50;1.77;;;10.20;67.10;;;;;;4980353;28;20480;-41
2022/04/08 09:26:19;;;;;;;3.53;2.10;;;10.10;67.70;;;;;;4977714;28;20991;-41
2022/04/08 09:28:47;;;;;;;3.13;1.80;;;10.10;67.90;;;;;;4980851;28;20459;-41
2022/04/08 09:31:20;;;;;;;4.10;1.77;;;10.10;68.20;;;;;;4978881;28;20478;-41
2022/04/08 09:33:48;;;;;;;5.40;1.93;;;10.20;69.40;;;;;;4980165;28;20498;-41
2022/04/08 09:36:30;;;;;;;5.63;2.20;;;10.20;69.70;;;;;;4978705;28;20831;-41
2022/04/08 09:38:57;;;;;;;7.53;3.50;;;10.10;70.30;;;;;;4978401;28;20502;-41
2022/04/08 09:41:49;;;;;;;10.43;6.20;;;10.00;70.80;;;;;;4976525;28;20490;-41
2022/04/08 09:44:24;;;;;;;9.63;6.67;;;10.00;71.80;;;;;;4978103;28;21016;-41
2022/04/08 09:46:51;;;;;;;5.23;3.00;;;10.00;72.20;;;;;;4977828;28;20604;-41
2022/04/08 09:49:18;;;;;;;5.53;2.40;;;10.00;72.50;;;;;;4982071;28;20449;-41
2022/04/08 09:51:50;;;;;;;9.07;2.60;;;10.00;73.10;;;;;;4982200;28;20468;-41
2022/04/08 09:54:21;;;;;;;5.80;2.40;;;9.90;73.10;;;;;;4983015;28;20457;-41
2022/04/08 09:56:48;;;;;;;5.67;2.70;;;9.90;73.80;;;;;;4976163;28;20493;-41
2022/04/08 09:59:24;;;;;;;8.20;3.20;;;9.90;74.80;;;;;;4986321;28;20571;-41
2022/04/08 10:02:14;;;;;;;3.50;1.90;;;10.00;74.80;;;;;;4966883;28;20482;-41
2022/04/08 10:04:45;;;;;;;2.50;1.83;;;10.00;75.40;;;;;;4963490;28;20485;-41
2022/04/08 10:07:12;;;;;;;4.30;1.93;;;10.00;73.70;;;;;;4983909;28;20577;-41
2022/04/08 10:10:00;;;;;;;5.87;2.10;;;10.00;73.70;;;;;;4982236;28;20505;-41
2022/04/08 10:12:35;;;;;;;2.73;1.60;;;10.00;74.00;;;;;;4973094;28;20940;-41
2022/04/08 10:15:03;;;;;;;6.10;2.20;;;10.00;75.30;;;;;;4986251;28;20932;-41
2022/04/08 10:17:29;;;;;;;5.20;2.73;;;10.00;75.20;;;;;;4984147;28;20895;-41
2022/04/08 10:20:15;;;;;;;5.73;3.63;;;9.90;75.70;;;;;;4983507;28;20569;-41
2022/04/08 10:22:42;;;;;;;4.90;3.30;;;9.90;76.40;;;;;;4983107;28;20493;-41
2022/04/08 10:25:17;;;;;;;6.10;2.50;;;9.90;75.70;;;;;;4984874;28;20468;-41
2022/04/08 10:27:44;;;;;;;4.83;2.10;;;9.80;74.30;;;;;;4965094;28;20505;-41
2022/04/08 10:30:14;;;;;;;3.67;1.50;;;9.70;74.80;;;;;;4984830;28;20955;-41
2022/04/08 10:32:43;;;;;;;7.97;2.33;;;9.70;74.70;;;;;;4982872;28;20490;-42
2022/04/08 10:35:15;;;;;;;2.33;1.67;;;9.60;74.50;;;;;;4968140;28;20512;-41
2022/04/08 10:37:53;;;;;;;2.30;1.40;;;9.50;76.30;;;;;;4984064;28;20475;-41
2022/04/08 10:40:20;;;;;;;4.67;1.63;;;9.40;73.20;;;;;;4984965;28;20561;-41
2022/04/08 10:43:05;;;;;;;4.63;1.23;;;9.30;74.80;;;;;;4983464;28;20491;-41
2022/04/08 10:45:31;;;;;;;2.60;1.50;;;9.20;76.40;;;;;;4988385;28;20548;-41
2022/04/08 10:48:16;;;;;;;3.13;1.50;;;9.10;76.80;;;;;;4985886;28;20458;-41
2022/04/08 10:50:43;;;;;;;4.10;1.80;;;9.00;77.40;;;;;;4988836;28;20565;-41
2022/04/08 10:53:11;;;;;;;1.80;1.13;;;9.00;77.90;;;;;;4987782;28;20538;-41
2022/04/08 10:55:45;;;;;;;2.40;1.53;;;8.90;78.60;;;;;;4985167;28;20486;-41
2022/04/08 10:58:15;;;;;;;3.30;1.90;;;8.90;78.20;;;;;;4987553;28;20500;-42
2022/04/08 11:00:42;;;;;;;4.07;1.37;;;8.90;79.10;;;;;;4989706;28;20532;-42
2022/04/08 11:03:13;;;;;;;2.47;1.60;;;8.80;77.60;;;;;;4980553;28;20572;-42
2022/04/08 11:05:40;;;;;;;2.27;2.00;;;8.80;78.40;;;;;;4986786;28;20466;-42
2022/04/08 11:08:07;;;;;;;4.83;1.20;;;8.70;78.70;;;;;;4986190;28;20455;-42
2022/04/08 11:10:34;;;;;;;3.50;1.47;;;8.70;79.10;;;;;;4953625;28;20550;-42
2022/04/08 11:13:01;;;;;;;2.50;1.37;;;8.70;79.30;;;;;;4970659;28;20829;-42
2022/04/08 11:15:29;;;;;;;1.90;1.30;;;8.80;79.70;;;;;;4984329;28;20980;-42
2022/04/08 11:17:59;;;;;;;1.63;1.53;;;8.80;79.00;;;;;;4983051;28;20505;-42
2022/04/08 11:20:27;;;;;;;1.47;1.23;;;8.90;79.50;;;;;;4972863;28;20481;-42
2022/04/08 11:22:55;;;;;;;2.50;1.23;;;8.90;79.20;;;;;;4985043;28;20622;-42
2022/04/08 11:25:24;;;;;;;6.63;1.20;;;8.80;79.10;;;;;;4983311;28;20508;-42
2022/04/08 11:28:05;;;;;;;3.67;1.30;;;8.90;79.60;;;;;;4983613;28;20460;-42
2022/04/08 11:30:34;;;;;;;3.93;1.17;;;8.90;79.50;;;;;;4969165;28;20528;-42
2022/04/08 11:33:13;;;;;;;1.00;1.00;;;8.90;79.00;;;;;;4968985;28;20457;-42
2022/04/08 11:35:40;;;;;;;1.90;1.40;;;8.90;79.50;;;;;;4983192;28;20849;-42
2022/04/08 11:38:18;;;;;;;1.33;1.23;;;8.90;79.30;;;;;;4984050;28;20958;-42
2022/04/08 11:40:46;;;;;;;2.13;1.73;;;8.80;79.70;;;;;;4979562;28;20462;-42
2022/04/08 11:43:17;;;;;;;4.43;1.30;;;8.80;80.40;;;;;;4967070;28;21033;-42
2022/04/08 11:45:45;;;;;;;2.53;1.20;;;8.90;81.30;;;;;;4978758;28;20466;-42
2022/04/08 11:48:20;;;;;;;2.70;1.13;;;8.90;81.00;;;;;;4982497;28;20491;-42
2022/04/08 11:50:55;;;;;;;3.80;1.10;;;8.90;80.40;;;;;;4983187;28;20506;-42
2022/04/08 11:53:24;;;;;;;1.57;1.47;;;9.00;80.00;;;;;;4981812;28;20493;-42
2022/04/08 11:55:55;;;;;;;1.10;1.00;;;9.00;79.60;;;;;;4985187;28;20466;-42
2022/04/08 11:58:22;;;;;;;1.93;1.00;;;9.00;79.00;;;;;;4982107;28;21110;-42
2022/04/08 12:00:51;;;;;;;1.33;0.70;;;9.00;78.90;;;;;;4980769;28;20463;-42
2022/04/08 12:03:20;;;;;;;3.70;0.77;;;9.00;79.30;;;;;;4961649;28;20929;-42
2022/04/08 12:05:49;;;;;;;3.03;1.00;;;9.00;79.30;;;;;;4984143;28;20456;-42
2022/04/08 12:08:35;;;;;;;0.83;0.57;;;9.00;79.40;;;;;;4983134;28;20465;-42
2022/04/08 12:11:08;;;;;;;2.30;1.23;;;9.00;79.20;;;;;;4964037;28;20454;-42
2022/04/08 12:13:36;;;;;;;3.37;1.00;;;9.00;79.40;;;;;;4983551;28;20864;-42
2022/04/08 12:16:08;;;;;;;1.90;1.17;;;8.90;79.40;;;;;;4986979;28;20576;-42
2022/04/08 12:18:45;;;;;;;1.30;0.83;;;8.90;79.70;;;;;;4981792;28;20460;-42
2022/04/08 12:21:11;;;;;;;0.90;0.60;;;8.90;79.60;;;;;;4980586;28;20819;-41
2022/04/08 12:23:40;;;;;;;0.70;0.70;;;9.00;78.70;;;;;;4985077;28;20496;-41
2022/04/08 12:26:08;;;;;;;2.17;0.90;;;9.00;78.60;;;;;;4980028;28;20451;-42
2022/04/08 12:28:35;;;;;;;0.77;0.77;;;8.90;79.00;;;;;;4980430;28;20459;-42
2022/04/08 12:31:17;;;;;;;1.37;0.80;;;8.90;79.20;;;;;;4982466;28;20473;-42
2022/04/08 12:33:44;;;;;;;1.93;1.00;;;8.90;79.10;;;;;;4980990;28;20520;-42
2022/04/08 12:36:12;;;;;;;1.90;0.70;;;8.90;79.30;;;;;;4983691;28;20980;-42
2022/04/08 12:38:40;;;;;;;1.43;1.00;;;8.80;79.30;;;;;;4985607;28;20465;-42
2022/04/08 12:41:08;;;;;;;2.30;0.90;;;8.80;79.10;;;;;;4980834;28;20466;-42
2022/04/08 12:43:35;;;;;;;3.07;1.43;;;8.80;78.80;;;;;;4975454;28;20517;-42
2022/04/08 12:46:02;;;;;;;1.50;1.30;;;8.70;78.70;;;;;;4980824;28;20450;-42
2022/04/08 12:48:32;;;;;;;3.77;3.37;;;8.70;79.00;;;;;;4983271;28;20450;-42
2022/04/08 12:50:59;;;;;;;1.90;1.60;;;8.60;79.00;;;;;;4981514;28;20493;-42
2022/04/08 12:53:29;;;;;;;2.00;1.00;;;8.60;79.10;;;;;;4984968;28;20462;-42
2022/04/08 12:55:57;;;;;;;0.97;0.80;;;8.60;78.60;;;;;;4980346;28;20522;-42
2022/04/08 12:58:24;;;;;;;2.93;0.80;;;8.60;78.80;;;;;;4956313;28;20473;-42
2022/04/08 13:00:54;;;;;;;0.57;0.53;;;8.60;79.00;;;;;;4983549;28;20479;-42
2022/04/08 13:03:21;;;;;;;2.57;0.80;;;8.50;79.00;;;;;;4979821;28;20962;-42